createdAt,value
2019-04-04T00:00:48.090Z,28.63
2019-04-04T00:03:21.036Z,28.60
2019-04-04T00:05:52.233Z,26.93
2019-04-04T00:08:23.347Z,27.03
2019-04-04T00:10:54.678Z,27.80
2019-04-04T00:13:25.632Z,26.07
2019-04-04T00:15:57.091Z,27.70
2019-04-04T00:18:28.385Z,27.40
2019-04-04T00:21:02.532Z,28.80
2019-04-04T00:23:32.671Z,28.00
2019-04-04T00:26:03.830Z,27.20
2019-04-04T00:28:35.788Z,27.37
2019-04-04T00:31:06.965Z,25.53
2019-04-04T00:33:38.054Z,26.73
2019-04-04T00:36:10.123Z,28.57
2019-04-04T00:38:41.383Z,27.10
2019-04-04T00:41:12.950Z,28.80
2019-04-04T00:43:44.855Z,27.50
2019-04-04T00:46:16.389Z,28.70
2019-04-04T00:48:47.556Z,27.90
2019-04-04T00:51:18.848Z,28.07
2019-04-04T00:53:49.962Z,27.77
2019-04-04T00:56:21.675Z,26.57
2019-04-04T00:58:52.842Z,28.23
2019-04-04T01:01:26.969Z,28.20
2019-04-04T01:04:00.260Z,27.80
2019-04-04T01:06:33.473Z,27.80
2019-04-04T01:09:04.735Z,27.80
2019-04-04T01:11:36.113Z,28.53
2019-04-04T01:14:07.267Z,27.93
2019-04-04T01:16:38.791Z,26.60
2019-04-04T01:19:10.461Z,28.40
2019-04-04T01:21:42.315Z,28.30
2019-04-04T01:24:13.909Z,27.50
2019-04-04T01:26:45.509Z,28.90
2019-04-04T01:29:16.664Z,28.00
2019-04-04T01:31:48.354Z,28.70
2019-04-04T01:34:20.905Z,26.00
2019-04-04T01:36:56.013Z,25.93
2019-04-04T01:39:25.956Z,28.50
2019-04-04T01:41:57.103Z,27.73
2019-04-04T01:44:28.949Z,29.80
2019-04-04T01:47:00.593Z,27.40
2019-04-04T01:49:31.853Z,27.57
2019-04-04T01:52:03.422Z,27.63
2019-04-04T01:54:35.247Z,28.20
2019-04-04T01:57:08.129Z,27.43
2019-04-04T01:59:41.958Z,28.17
2019-04-04T02:02:13.774Z,28.70
2019-04-04T02:04:45.507Z,28.07
2019-04-04T02:07:17.307Z,29.33
2019-04-04T02:09:48.763Z,30.20
2019-04-04T02:12:20.708Z,30.60
2019-04-04T02:14:52.495Z,29.23
2019-04-04T02:17:24.954Z,27.60
2019-04-04T02:19:57.004Z,28.20
2019-04-04T02:22:30.743Z,28.50
2019-04-04T02:25:03.149Z,26.97
2019-04-04T02:27:37.929Z,27.77
2019-04-04T02:30:14.578Z,27.40
2019-04-04T02:32:44.547Z,28.23
2019-04-04T02:35:16.212Z,27.57
2019-04-04T02:37:48.020Z,28.67
2019-04-04T02:40:19.606Z,28.77
2019-04-04T02:42:54.087Z,28.47
2019-04-04T02:45:26.172Z,27.83
2019-04-04T02:47:57.634Z,29.47
2019-04-04T02:50:34.387Z,28.17
2019-04-04T02:53:04.052Z,28.37
2019-04-04T02:55:36.094Z,29.30
2019-04-04T02:58:07.727Z,29.33
2019-04-04T03:00:40.017Z,27.77
2019-04-04T03:03:11.138Z,29.57
2019-04-04T03:05:43.467Z,29.47
2019-04-04T03:08:15.486Z,29.30
2019-04-04T03:10:49.229Z,28.20
2019-04-04T03:13:20.563Z,28.47
2019-04-04T03:15:52.272Z,28.40
2019-04-04T03:18:24.856Z,27.30
2019-04-04T03:20:56.603Z,28.37
2019-04-04T03:23:32.990Z,26.90
2019-04-04T03:26:01.589Z,28.83
2019-04-04T03:28:33.986Z,29.57
2019-04-04T03:31:05.507Z,29.40
2019-04-04T03:33:37.539Z,26.70
2019-04-04T03:36:11.704Z,27.80
2019-04-04T03:38:46.151Z,26.03
2019-04-04T03:41:15.925Z,26.17
2019-04-04T03:43:48.879Z,26.03
2019-04-04T03:46:20.767Z,27.20
2019-04-04T03:48:51.946Z,28.20
2019-04-04T03:51:23.383Z,25.77
2019-04-04T03:53:57.970Z,27.07
2019-04-04T03:56:33.237Z,26.57
2019-04-04T03:59:02.674Z,26.27
2019-04-04T04:01:35.751Z,25.70
2019-04-04T04:04:06.924Z,26.90
2019-04-04T04:06:41.347Z,28.93
2019-04-04T04:09:11.681Z,24.47
2019-04-04T04:11:42.601Z,26.50
2019-04-04T04:14:14.044Z,26.23
2019-04-04T04:16:45.239Z,27.53
2019-04-04T04:19:16.651Z,27.50
2019-04-04T04:21:47.483Z,27.17
2019-04-04T04:24:18.547Z,26.90
2019-04-04T04:26:49.711Z,27.10
2019-04-04T04:29:21.010Z,26.43
2019-04-04T04:31:53.153Z,27.57
2019-04-04T04:34:24.089Z,26.10
2019-04-04T04:36:55.167Z,25.90
2019-04-04T04:39:26.256Z,25.43
2019-04-04T04:41:57.826Z,25.57
2019-04-04T04:44:29.310Z,23.60
2019-04-04T04:47:00.850Z,24.50
2019-04-04T04:49:35.337Z,25.70
2019-04-04T04:52:05.322Z,23.97
2019-04-04T04:54:36.272Z,23.20
2019-04-04T04:57:08.207Z,25.07
2019-04-04T04:59:40.225Z,24.60
2019-04-04T05:02:11.402Z,24.90
2019-04-04T05:04:44.107Z,24.03
2019-04-04T05:07:15.535Z,25.73
2019-04-04T05:09:47.405Z,24.03
2019-04-04T05:12:21.731Z,25.57
2019-04-04T05:14:51.689Z,25.57
2019-04-04T05:17:23.883Z,25.13
2019-04-04T05:19:55.563Z,24.23
2019-04-04T05:22:26.605Z,22.57
2019-04-04T05:25:07.929Z,24.73
2019-04-04T05:27:32.601Z,25.47
2019-04-04T05:30:08.133Z,22.20
2019-04-04T05:32:38.206Z,23.20
2019-04-04T05:35:09.645Z,22.20
2019-04-04T05:37:41.315Z,24.00
2019-04-04T05:40:13.162Z,24.00
2019-04-04T05:42:44.920Z,25.20
2019-04-04T05:45:16.693Z,24.07
2019-04-04T05:47:47.904Z,24.93
2019-04-04T05:50:20.562Z,23.43
2019-04-04T05:52:52.429Z,24.33
2019-04-04T05:55:23.568Z,24.47
2019-04-04T05:57:56.182Z,24.30
2019-04-04T06:00:28.321Z,23.90
2019-04-04T06:03:00.165Z,23.60
2019-04-04T06:05:31.934Z,22.03
2019-04-04T06:08:07.672Z,24.77
2019-04-04T06:10:37.472Z,25.70
2019-04-04T06:13:09.891Z,24.13
2019-04-04T06:15:42.130Z,23.23
2019-04-04T06:18:13.983Z,22.20
2019-04-04T06:20:48.311Z,21.50
2019-04-04T06:23:20.519Z,23.37
2019-04-04T06:25:52.454Z,23.10
2019-04-04T06:28:24.118Z,23.10
2019-04-04T06:30:55.870Z,22.23
2019-04-04T06:33:28.668Z,20.90
2019-04-04T06:36:00.179Z,23.40
2019-04-04T06:38:32.656Z,24.10
2019-04-04T06:41:04.160Z,23.13
2019-04-04T06:43:36.751Z,23.53
2019-04-04T06:46:09.007Z,23.23
2019-04-04T06:48:40.830Z,24.43
2019-04-04T06:51:14.063Z,22.83
2019-04-04T06:53:46.850Z,24.60
2019-04-04T06:56:17.884Z,21.20
2019-04-04T06:58:49.245Z,22.67
2019-04-04T07:01:21.865Z,22.37
2019-04-04T07:03:53.056Z,23.33
2019-04-04T07:06:24.340Z,21.63
2019-04-04T07:08:55.289Z,23.07
2019-04-04T07:11:26.875Z,22.43
2019-04-04T07:13:59.081Z,21.80
2019-04-04T07:16:30.757Z,22.00
2019-04-04T07:19:02.413Z,23.60
2019-04-04T07:21:34.365Z,21.43
2019-04-04T07:24:05.151Z,20.20
2019-04-04T07:26:43.251Z,23.33
2019-04-04T07:29:15.054Z,22.13
2019-04-04T07:31:46.606Z,24.17
2019-04-04T07:34:18.826Z,22.07
2019-04-04T07:36:51.195Z,21.30
2019-04-04T07:39:22.760Z,20.60
2019-04-04T07:41:53.671Z,20.63
2019-04-04T07:44:25.556Z,19.20
2019-04-04T07:46:57.916Z,19.63
2019-04-04T07:49:30.204Z,21.73
2019-04-04T07:52:03.500Z,20.53
2019-04-04T07:54:38.502Z,18.83
2019-04-04T07:57:09.304Z,20.50
2019-04-04T07:59:41.110Z,21.20
2019-04-04T08:02:14.772Z,22.50
2019-04-04T08:04:59.390Z,21.87
2019-04-04T08:07:34.124Z,20.67
2019-04-04T08:10:06.494Z,23.13
2019-04-04T08:12:38.756Z,20.63
2019-04-04T08:15:10.112Z,21.40
2019-04-04T08:17:42.283Z,20.57
2019-04-04T08:20:13.937Z,20.17
2019-04-04T08:22:45.683Z,19.77
2019-04-04T08:25:17.274Z,21.20
2019-04-04T08:27:49.942Z,19.90
2019-04-04T08:30:22.118Z,21.80
2019-04-04T08:32:56.420Z,20.83
2019-04-04T08:35:29.272Z,21.00
2019-04-04T08:37:59.938Z,20.07
2019-04-04T08:40:31.840Z,20.80
2019-04-04T08:43:03.218Z,23.83
2019-04-04T08:45:36.458Z,21.20
2019-04-04T08:48:07.991Z,21.93
2019-04-04T08:50:39.317Z,21.40
2019-04-04T08:53:10.331Z,19.77
2019-04-04T08:55:42.052Z,20.20
2019-04-04T08:58:13.571Z,20.50
2019-04-04T09:00:45.313Z,20.87
2019-04-04T09:03:17.387Z,21.30
2019-04-04T09:05:50.890Z,19.77
2019-04-04T09:08:22.164Z,21.27
2019-04-04T09:10:54.341Z,19.73
2019-04-04T09:13:26.147Z,22.03
2019-04-04T09:15:57.854Z,21.70
2019-04-04T09:18:29.384Z,19.23
2019-04-04T09:21:00.697Z,22.13
2019-04-04T09:23:32.270Z,20.23
2019-04-04T09:26:05.881Z,19.57
2019-04-04T09:28:36.880Z,19.77
2019-04-04T09:31:08.563Z,21.03
2019-04-04T09:33:40.470Z,20.03
2019-04-04T09:36:11.614Z,21.80
2019-04-04T09:38:44.411Z,21.03
2019-04-04T09:41:16.003Z,20.83
2019-04-04T09:43:47.861Z,18.60
2019-04-04T09:46:19.895Z,19.73
2019-04-04T09:48:51.774Z,18.50
2019-04-04T09:51:23.526Z,20.40
2019-04-04T09:53:56.246Z,18.67
2019-04-04T09:56:28.803Z,19.50
2019-04-04T09:59:00.910Z,17.87
2019-04-04T10:01:32.605Z,17.93
2019-04-04T10:04:04.286Z,19.10
2019-04-04T10:06:35.583Z,20.30
2019-04-04T10:09:15.492Z,19.03
2019-04-04T10:11:44.077Z,18.43
2019-04-04T10:14:16.150Z,18.53
2019-04-04T10:16:48.286Z,19.60
2019-04-04T10:19:20.351Z,19.07
2019-04-04T10:21:52.833Z,16.33
2019-04-04T10:24:24.517Z,16.70
2019-04-04T10:26:56.408Z,17.00
2019-04-04T10:29:28.005Z,16.27
2019-04-04T10:32:00.362Z,17.80
2019-04-04T10:34:32.586Z,20.10
2019-04-04T10:37:04.556Z,17.70
2019-04-04T10:39:37.352Z,17.00
2019-04-04T10:42:08.806Z,16.87
2019-04-04T10:44:40.966Z,18.10
2019-04-04T10:47:13.355Z,17.33
2019-04-04T10:49:46.115Z,16.30
2019-04-04T10:52:17.765Z,14.97
2019-04-04T10:54:49.631Z,16.37
2019-04-04T10:57:21.105Z,16.30
2019-04-04T10:59:54.718Z,15.40
2019-04-04T11:02:26.189Z,16.73
2019-04-04T11:04:57.676Z,15.83
2019-04-04T11:07:29.941Z,15.10
2019-04-04T11:10:01.976Z,15.60
2019-04-04T11:12:34.453Z,16.63
2019-04-04T11:15:06.935Z,15.00
2019-04-04T11:17:38.502Z,14.67
2019-04-04T11:20:09.840Z,15.40
2019-04-04T11:22:41.032Z,16.10
2019-04-04T11:25:13.615Z,17.37
2019-04-04T11:27:45.512Z,15.20
2019-04-04T11:30:17.319Z,16.40
2019-04-04T11:32:49.097Z,16.10
2019-04-04T11:35:20.885Z,16.13
2019-04-04T11:37:52.647Z,16.40
2019-04-04T11:40:24.197Z,16.93
2019-04-04T11:42:56.457Z,18.30
2019-04-04T11:45:28.013Z,17.47
2019-04-04T11:48:00.191Z,19.47
2019-04-04T11:50:33.002Z,16.17
2019-04-04T11:53:04.904Z,17.10
2019-04-04T11:55:37.131Z,16.10
2019-04-04T11:58:09.048Z,16.27
2019-04-04T12:00:42.282Z,17.17
2019-04-04T12:03:13.872Z,15.13
2019-04-04T12:05:45.118Z,15.17
2019-04-04T12:08:16.034Z,15.93
2019-04-04T12:10:47.081Z,16.30
2019-04-04T12:13:18.945Z,14.40
2019-04-04T12:15:50.528Z,14.83
2019-04-04T12:18:22.358Z,13.90
2019-04-04T12:20:56.449Z,15.03
2019-04-04T12:23:28.174Z,13.30
2019-04-04T12:26:00.035Z,14.67
2019-04-04T12:28:31.899Z,16.23
2019-04-04T12:31:03.865Z,16.30
2019-04-04T12:33:37.831Z,13.97
2019-04-04T12:36:09.390Z,14.73
2019-04-04T12:38:40.320Z,15.17
2019-04-04T12:41:11.393Z,14.93
2019-04-04T12:43:42.937Z,16.23
2019-04-04T12:46:14.722Z,16.20
2019-04-04T12:48:46.055Z,16.20
2019-04-04T12:51:18.472Z,16.63
2019-04-04T12:53:50.005Z,15.83
2019-04-04T12:56:21.435Z,15.90
2019-04-04T12:58:53.258Z,16.77
2019-04-04T13:01:24.796Z,18.37
2019-04-04T13:03:56.817Z,17.30
2019-04-04T13:06:28.534Z,15.77
2019-04-04T13:09:00.261Z,16.17
2019-04-04T13:11:31.621Z,17.90
2019-04-04T13:14:03.227Z,16.83
2019-04-04T13:16:34.679Z,16.43
2019-04-04T13:19:06.086Z,16.73
2019-04-04T13:21:37.780Z,16.47
2019-04-04T13:24:09.390Z,17.60
2019-04-04T13:26:41.158Z,17.90
2019-04-04T13:29:12.949Z,17.90
2019-04-04T13:31:44.634Z,18.00
2019-04-04T13:34:17.133Z,17.00
2019-04-04T13:36:49.550Z,17.93
2019-04-04T13:39:22.296Z,17.33
2019-04-04T13:41:53.645Z,16.93
2019-04-04T13:44:27.878Z,17.17
2019-04-04T13:47:02.720Z,17.47
2019-04-04T13:49:34.541Z,18.07
2019-04-04T13:52:06.354Z,17.50
2019-04-04T13:54:41.022Z,16.60
2019-04-04T13:57:12.286Z,17.37
2019-04-04T13:59:43.507Z,18.00
2019-04-04T14:02:14.857Z,17.30
2019-04-04T14:04:46.162Z,17.50
2019-04-04T14:07:17.538Z,17.03
2019-04-04T14:09:49.019Z,18.13
2019-04-04T14:12:20.427Z,18.30
2019-04-04T14:14:52.050Z,16.30
2019-04-04T14:17:25.418Z,16.40
2019-04-04T14:19:56.597Z,17.10
2019-04-04T14:22:28.610Z,16.93
2019-04-04T14:25:02.799Z,17.30
2019-04-04T14:27:34.797Z,16.83
2019-04-04T14:30:09.364Z,16.60
2019-04-04T14:32:41.084Z,17.30
2019-04-04T14:35:12.846Z,17.13
2019-04-04T14:37:43.675Z,16.70
2019-04-04T14:40:14.820Z,15.63
2019-04-04T14:42:46.525Z,17.17
2019-04-04T14:45:23.238Z,15.63
2019-04-04T14:47:56.593Z,16.40
2019-04-04T14:50:28.301Z,16.30
2019-04-04T14:53:00.932Z,16.83
2019-04-04T14:55:33.183Z,15.70
2019-04-04T14:58:05.389Z,16.27
2019-04-04T15:00:36.706Z,16.23
2019-04-04T15:03:08.669Z,15.20
2019-04-04T15:05:39.748Z,15.50
2019-04-04T15:08:12.165Z,16.30
2019-04-04T15:10:45.261Z,15.40
2019-04-04T15:13:16.922Z,16.63
2019-04-04T15:16:15.705Z,18.20
2019-04-04T15:18:47.552Z,17.23
2019-04-04T15:21:20.138Z,16.90
2019-04-04T15:23:52.591Z,15.90
2019-04-04T15:26:25.694Z,16.30
2019-04-04T15:28:57.842Z,17.10
2019-04-04T15:31:30.112Z,17.90
2019-04-04T15:34:02.404Z,17.93
2019-04-04T15:36:34.152Z,16.43
2019-04-04T15:39:07.050Z,16.07
2019-04-04T15:41:38.962Z,15.40
2019-04-04T15:44:10.878Z,15.80
2019-04-04T15:46:43.611Z,17.43
2019-04-04T15:49:16.087Z,16.40
2019-04-04T15:51:48.505Z,16.10
2019-04-04T15:54:20.321Z,17.27
2019-04-04T15:56:52.827Z,17.67
2019-04-04T15:59:27.364Z,17.53
2019-04-04T16:01:59.718Z,17.83
2019-04-04T16:04:32.722Z,16.50
2019-04-04T16:07:05.966Z,16.10
2019-04-04T16:09:39.875Z,17.97
2019-04-04T16:12:13.194Z,19.20
2019-04-04T16:14:46.776Z,18.60
2019-04-04T16:17:19.130Z,18.07
2019-04-04T16:19:51.631Z,19.33
2019-04-04T16:22:24.356Z,18.10
2019-04-04T16:24:57.680Z,18.93
2019-04-04T16:27:29.794Z,17.70
2019-04-04T16:30:02.333Z,20.00
2019-04-04T16:32:34.690Z,17.47
2019-04-04T16:35:06.785Z,17.40
2019-04-04T16:37:38.284Z,16.97
2019-04-04T16:40:11.395Z,18.87
2019-04-04T16:42:43.895Z,18.23
2019-04-04T16:45:15.597Z,17.67
2019-04-04T16:47:47.569Z,18.07
2019-04-04T16:50:19.336Z,18.27
2019-04-04T16:52:51.386Z,18.57
2019-04-04T16:55:23.726Z,18.20
2019-04-04T16:57:55.349Z,18.17
2019-04-04T17:00:27.600Z,17.50
2019-04-04T17:02:59.924Z,18.60
2019-04-04T17:05:31.753Z,18.43
2019-04-04T17:08:04.649Z,18.27
2019-04-04T17:10:37.531Z,18.73
2019-04-04T17:13:10.314Z,18.30
2019-04-04T17:15:44.046Z,19.23
2019-04-04T17:18:16.724Z,18.20
2019-04-04T17:20:49.095Z,18.10
2019-04-04T17:23:22.841Z,19.83
2019-04-04T17:25:56.005Z,20.47
2019-04-04T17:28:28.638Z,19.63
2019-04-04T17:31:02.267Z,20.00
2019-04-04T17:33:34.806Z,20.03
2019-04-04T17:36:07.705Z,20.97
2019-04-04T17:38:40.271Z,20.60
2019-04-04T17:41:12.601Z,19.93
2019-04-04T17:43:46.197Z,20.97
2019-04-04T17:46:19.630Z,19.73
2019-04-04T17:48:52.802Z,20.23
2019-04-04T17:51:25.073Z,20.93
2019-04-04T17:54:05.369Z,18.47
2019-04-04T17:56:37.750Z,19.67
2019-04-04T17:59:09.856Z,20.07
2019-04-04T18:01:41.821Z,20.57
2019-04-04T18:04:14.315Z,19.50
2019-04-04T18:06:49.039Z,17.90
2019-04-04T18:09:31.657Z,18.70
2019-04-04T18:11:59.281Z,19.07
2019-04-04T18:14:33.414Z,18.63
2019-04-04T18:17:06.212Z,19.03
2019-04-04T18:19:40.985Z,22.33
2019-04-04T18:22:13.475Z,20.50
2019-04-04T18:24:47.386Z,21.63
2019-04-04T18:27:21.167Z,19.80
2019-04-04T18:29:54.068Z,20.70
2019-04-04T18:32:37.865Z,20.57
2019-04-04T18:35:10.971Z,21.90
2019-04-04T18:37:55.648Z,21.50
2019-04-04T18:40:28.508Z,20.43
2019-04-04T18:43:01.196Z,19.93
2019-04-04T18:45:36.265Z,20.40
2019-04-04T18:48:09.706Z,21.33
2019-04-04T18:50:43.588Z,21.97
2019-04-04T18:53:15.721Z,19.97
2019-04-04T18:55:48.108Z,21.23
2019-04-04T18:58:22.905Z,20.70
2019-04-04T19:01:11.828Z,20.97
2019-04-04T19:03:44.442Z,20.93
2019-04-04T19:06:17.306Z,22.80
2019-04-04T19:08:50.828Z,21.40
2019-04-04T19:11:26.123Z,22.13
2019-04-04T19:14:05.676Z,21.30
2019-04-04T19:16:39.387Z,21.13
2019-04-04T19:19:13.124Z,21.90
2019-04-04T19:21:45.323Z,23.07
2019-04-04T19:24:18.113Z,22.13
2019-04-04T19:26:51.717Z,22.73
2019-04-04T19:29:23.912Z,23.50
2019-04-04T19:31:55.679Z,22.70
2019-04-04T19:34:28.349Z,22.00
2019-04-04T19:37:02.056Z,21.40
2019-04-04T19:39:36.241Z,22.67
2019-04-04T19:42:07.988Z,22.40
2019-04-04T19:44:52.385Z,23.53
2019-04-04T19:47:14.411Z,23.30
2019-04-04T19:49:46.799Z,23.47
2019-04-04T19:52:19.243Z,23.53
2019-04-04T19:54:52.106Z,22.97
2019-04-04T19:57:24.614Z,22.60
2019-04-04T19:59:57.186Z,23.97
2019-04-04T20:02:30.026Z,22.93
2019-04-04T20:05:02.963Z,21.83
2019-04-04T20:07:35.546Z,21.90
2019-04-04T20:10:10.111Z,22.83
2019-04-04T20:12:42.105Z,21.60
2019-04-04T20:15:15.748Z,20.67
2019-04-04T20:17:49.861Z,21.77
2019-04-04T20:20:22.483Z,20.63
2019-04-04T20:22:54.170Z,20.70
2019-04-04T20:25:27.067Z,22.60
2019-04-04T20:28:00.053Z,20.43
2019-04-04T20:30:45.305Z,20.03
2019-04-04T20:33:17.529Z,21.40
2019-04-04T20:35:54.703Z,21.00
2019-04-04T20:38:31.655Z,20.33
2019-04-04T20:41:04.365Z,22.60
2019-04-04T20:43:43.135Z,24.57
2019-04-04T20:46:09.865Z,24.60
2019-04-04T20:48:42.911Z,21.40
2019-04-04T20:51:15.682Z,21.27
2019-04-04T20:53:48.345Z,21.20
2019-04-04T20:56:20.961Z,22.60
2019-04-04T20:59:10.243Z,22.10
2019-04-04T21:01:56.461Z,21.57
2019-04-04T21:04:28.183Z,21.43
2019-04-04T21:06:59.310Z,21.87
2019-04-04T21:09:31.193Z,22.87
2019-04-04T21:12:03.905Z,23.03
2019-04-04T21:15:02.347Z,23.03
2019-04-04T21:17:34.948Z,23.00
2019-04-04T21:20:11.983Z,22.60
2019-04-04T21:22:44.195Z,22.67
2019-04-04T21:25:15.961Z,22.07
2019-04-04T21:27:54.616Z,23.90
2019-04-04T21:30:26.124Z,22.40
2019-04-04T21:32:58.693Z,22.53
2019-04-04T21:35:29.442Z,22.27
2019-04-04T21:38:00.385Z,23.00
2019-04-04T21:40:33.550Z,23.50
2019-04-04T21:43:04.385Z,23.40
2019-04-04T21:45:35.825Z,24.57
2019-04-04T21:48:08.028Z,24.57
2019-04-04T21:50:39.267Z,24.13
2019-04-04T21:53:10.484Z,24.53
2019-04-04T21:55:43.706Z,23.50
2019-04-04T21:58:15.226Z,26.13
2019-04-04T22:00:47.218Z,24.00
2019-04-04T22:03:18.491Z,23.30
2019-04-04T22:05:50.279Z,23.63
2019-04-04T22:08:22.833Z,24.87
2019-04-04T22:10:55.153Z,24.70
2019-04-04T22:13:26.924Z,23.20
2019-04-04T22:15:58.922Z,24.83
2019-04-04T22:18:30.546Z,23.60
2019-04-04T22:21:01.726Z,25.43
2019-04-04T22:23:33.190Z,24.73
2019-04-04T22:26:04.349Z,24.83
2019-04-04T22:28:35.907Z,25.40
2019-04-04T22:31:07.309Z,23.97
2019-04-04T22:33:38.316Z,24.00
2019-04-04T22:36:10.445Z,25.20
2019-04-04T22:38:42.320Z,26.90
2019-04-04T22:41:14.019Z,25.53
2019-04-04T22:43:46.745Z,24.80
2019-04-04T22:46:20.782Z,26.17
2019-04-04T22:48:54.823Z,24.80
2019-04-04T22:51:28.025Z,24.70
2019-04-04T22:54:02.452Z,25.57
2019-04-04T22:56:36.572Z,26.40
2019-04-04T22:59:09.847Z,25.57
2019-04-04T23:01:44.243Z,26.17
2019-04-04T23:04:18.026Z,24.63
2019-04-04T23:06:50.768Z,25.37
2019-04-04T23:09:24.282Z,26.73
2019-04-04T23:11:57.820Z,26.90
2019-04-04T23:14:31.793Z,26.17
2019-04-04T23:17:04.735Z,27.03
2019-04-04T23:19:38.378Z,26.43
2019-04-04T23:22:11.814Z,25.70
2019-04-04T23:24:45.283Z,25.93
2019-04-04T23:27:19.249Z,26.27
2019-04-04T23:29:52.730Z,26.53
2019-04-04T23:32:29.326Z,25.73
2019-04-04T23:35:02.409Z,24.97
2019-04-04T23:37:36.243Z,27.30
2019-04-04T23:40:10.054Z,25.93
2019-04-04T23:42:43.311Z,25.90
2019-04-04T23:45:15.873Z,27.20
2019-04-04T23:47:50.676Z,25.70
2019-04-04T23:50:24.183Z,26.17
2019-04-04T23:52:58.130Z,26.73
2019-04-04T23:55:31.580Z,25.97
2019-04-04T23:58:04.663Z,27.20
